Time;durP1;ratioP1;P1;durP2;ratioP2;P2;SDS_P1;SDS_P2;PMS_P1;PMS_P2;Temp;Humidity;BMP_temperature;BMP_pressure;BME280_temperature;BME280_humidity;BME280_pressure;Samples;Min_cycle;Max_cycle;Signal;HPM_P1;HPM_P2
2023/07/17 00:02:07;;;;;;;3.70;1.63;;;21.30;55.90;;;;;;4976786;28;20174;-80
2023/07/17 00:04:34;;;;;;;4.53;2.00;;;21.30;56.00;;;;;;4993043;28;20642;-80
2023/07/17 00:06:59;;;;;;;3.50;1.67;;;21.30;56.10;;;;;;4976861;28;20185;-80
2023/07/17 00:09:25;;;;;;;3.30;1.97;;;21.40;56.40;;;;;;4992264;28;20612;-80
2023/07/17 00:11:51;;;;;;;4.90;1.90;;;21.40;56.50;;;;;;5010641;28;20213;-79
2023/07/17 00:14:17;;;;;;;5.70;1.73;;;21.40;56.60;;;;;;5010499;28;20167;-80
2023/07/17 00:16:42;;;;;;;4.03;2.30;;;21.50;56.80;;;;;;5010429;28;20170;-80
2023/07/17 00:19:08;;;;;;;3.80;1.63;;;21.50;56.90;;;;;;4992356;28;20209;-80
2023/07/17 00:21:34;;;;;;;4.00;1.80;;;21.50;57.10;;;;;;5010107;28;20194;-80
2023/07/17 00:23:59;;;;;;;5.17;2.00;;;21.60;57.30;;;;;;4978164;28;20182;-79
2023/07/17 00:26:25;;;;;;;8.60;2.10;;;21.60;57.50;;;;;;4994164;28;20625;-79
2023/07/17 00:28:55;;;;;;;3.07;1.67;;;21.60;57.70;;;;;;5010137;28;20202;-79
2023/07/17 00:31:21;;;;;;;4.83;2.00;;;21.60;58.10;;;;;;5010056;28;20178;-79
2023/07/17 00:33:46;;;;;;;4.73;1.77;;;21.60;58.20;;;;;;4993226;28;20677;-79
2023/07/17 00:36:12;;;;;;;4.00;1.63;;;21.60;58.40;;;;;;4976267;28;20952;-79
2023/07/17 00:38:38;;;;;;;4.97;1.50;;;21.60;58.50;;;;;;4976490;28;20222;-79
2023/07/17 00:41:06;;;;;;;4.53;1.70;;;21.70;58.90;;;;;;4992083;28;20233;-80
2023/07/17 00:43:31;;;;;;;4.60;1.90;;;21.60;59.00;;;;;;4992758;28;20570;-81
2023/07/17 00:45:57;;;;;;;4.23;2.27;;;21.70;59.40;;;;;;5010501;28;20175;-80
2023/07/17 00:48:24;;;;;;;4.00;2.17;;;21.70;59.60;;;;;;4976049;28;20973;-80
2023/07/17 00:50:51;;;;;;;4.40;1.70;;;21.60;59.90;;;;;;4976071;28;20577;-80
2023/07/17 00:53:18;;;;;;;4.13;2.10;;;21.60;60.50;;;;;;4991916;28;20605;-80
2023/07/17 00:55:45;;;;;;;4.30;1.80;;;21.60;60.70;;;;;;5009939;28;20582;-80
2023/07/17 00:58:11;;;;;;;4.60;1.90;;;21.60;61.20;;;;;;4975936;28;20649;-80
2023/07/17 01:00:37;;;;;;;4.77;1.73;;;21.60;61.70;;;;;;4992391;28;20582;-79
2023/07/17 01:03:03;;;;;;;3.97;1.87;;;21.60;61.90;;;;;;4976874;28;20660;-80
2023/07/17 01:05:29;;;;;;;5.33;2.33;;;21.60;62.50;;;;;;5010594;28;20607;-79
2023/07/17 01:07:55;;;;;;;3.80;2.10;;;21.50;62.80;;;;;;4995947;28;20616;-80
2023/07/17 01:10:21;;;;;;;3.27;1.90;;;21.50;63.30;;;;;;5013434;28;20178;-81
2023/07/17 01:12:47;;;;;;;4.33;1.93;;;21.50;63.70;;;;;;5000543;23;20675;-77
2023/07/17 01:15:12;;;;;;;4.83;1.57;;;21.50;64.20;;;;;;5013401;28;20376;-76
2023/07/17 01:17:38;;;;;;;5.97;1.40;;;21.40;64.90;;;;;;5026649;28;20637;-76
2023/07/17 01:20:05;;;;;;;2.63;1.40;;;21.40;65.30;;;;;;5011963;28;20177;-77
2023/07/17 01:23:09;;;;;;;2.73;1.20;;;21.30;66.00;;;;;;5038410;28;21182;-79
2023/07/17 01:25:35;;;;;;;5.17;1.57;;;21.30;67.10;;;;;;4965214;28;20645;-78
2023/07/17 01:28:01;;;;;;;4.00;1.80;;;21.30;66.80;;;;;;5002452;28;20591;-79
2023/07/17 01:30:27;;;;;;;4.17;1.63;;;21.30;67.30;;;;;;5033723;28;20663;-79
2023/07/17 01:32:53;;;;;;;4.67;1.53;;;21.20;67.90;;;;;;4987026;28;20705;-78
2023/07/17 01:35:18;;;;;;;2.30;1.37;;;21.20;68.30;;;;;;5027540;28;20679;-78
2023/07/17 01:37:44;;;;;;;2.80;1.43;;;21.10;68.70;;;;;;5002240;28;20181;-78
2023/07/17 01:40:11;;;;;;;5.43;1.50;;;21.10;69.30;;;;;;5017585;28;20195;-78
2023/07/17 01:42:37;;;;;;;3.87;1.30;;;21.10;70.00;;;;;;5034232;28;20200;-78
2023/07/17 01:45:03;;;;;;;5.23;1.73;;;21.10;70.40;;;;;;5034447;28;20931;-79
2023/07/17 01:47:30;;;;;;;2.70;1.47;;;21.10;70.90;;;;;;5026517;28;20587;-79
2023/07/17 01:49:55;;;;;;;4.30;1.60;;;21.00;71.40;;;;;;5027513;28;20588;-79
2023/07/17 01:52:22;;;;;;;8.30;1.93;;;21.00;72.30;;;;;;5017928;28;20678;-79
2023/07/17 01:54:47;;;;;;;2.20;1.00;;;20.90;72.60;;;;;;5035007;28;20687;-79
2023/07/17 01:57:14;;;;;;;2.30;1.20;;;20.90;73.20;;;;;;5034635;28;20169;-79
2023/07/17 01:59:39;;;;;;;2.30;1.20;;;20.90;73.70;;;;;;5016685;28;20627;-79
2023/07/17 02:02:05;;;;;;;1.90;1.10;;;20.80;74.10;;;;;;4998666;28;20629;-79
2023/07/17 02:04:31;;;;;;;2.40;1.20;;;20.80;74.50;;;;;;5010006;28;20169;-79
2023/07/17 02:06:57;;;;;;;2.90;1.30;;;20.80;74.90;;;;;;5015918;28;21138;-79
2023/07/17 02:09:25;;;;;;;3.90;1.20;;;20.70;75.10;;;;;;5009399;28;20184;-78
2023/07/17 02:11:51;;;;;;;2.33;1.50;;;20.70;75.80;;;;;;5001080;28;21149;-78
2023/07/17 02:14:17;;;;;;;3.60;1.70;;;20.70;75.90;;;;;;5034452;28;20567;-78
2023/07/17 02:16:42;;;;;;;2.70;1.50;;;20.60;76.50;;;;;;5026224;28;20262;-78
2023/07/17 02:19:08;;;;;;;2.63;1.07;;;20.60;77.10;;;;;;5042852;28;20215;-78
2023/07/17 02:21:34;;;;;;;3.03;1.30;;;20.60;77.70;;;;;;5051866;28;20165;-78
2023/07/17 02:23:59;;;;;;;2.20;1.07;;;20.60;78.50;;;;;;5033835;28;20567;-78
2023/07/17 02:26:26;;;;;;;2.43;1.20;;;20.60;78.90;;;;;;5034078;28;20169;-78
2023/07/17 02:28:51;;;;;;;1.80;1.20;;;20.60;79.50;;;;;;5016616;28;20181;-77
2023/07/17 02:31:17;;;;;;;2.23;1.10;;;20.60;79.90;;;;;;5034076;28;20607;-78
2023/07/17 02:33:43;;;;;;;3.97;1.70;;;20.60;80.30;;;;;;5017603;28;20201;-78
2023/07/17 02:36:09;;;;;;;4.50;1.27;;;20.60;80.90;;;;;;5022393;28;20219;-78
2023/07/17 02:38:35;;;;;;;3.50;1.37;;;20.60;81.10;;;;;;5029842;28;20666;-78
2023/07/17 02:41:01;;;;;;;2.67;1.20;;;20.60;81.90;;;;;;5027224;28;20596;-78
2023/07/17 02:43:28;;;;;;;2.33;1.20;;;20.60;82.40;;;;;;5033224;28;20770;-78
2023/07/17 02:45:54;;;;;;;2.20;1.07;;;20.60;82.40;;;;;;5017485;28;20627;-77
2023/07/17 02:48:20;;;;;;;3.93;1.27;;;20.60;82.80;;;;;;5033935;28;20196;-77
2023/07/17 02:50:50;;;;;;;4.40;1.07;;;20.60;82.90;;;;;;5033161;28;20231;-77
2023/07/17 02:53:16;;;;;;;3.10;1.30;;;20.60;83.60;;;;;;5033336;28;20227;-77
2023/07/17 02:55:42;;;;;;;2.67;1.10;;;20.60;83.70;;;;;;5016609;28;20603;-77
2023/07/17 02:58:08;;;;;;;2.30;1.03;;;20.60;84.10;;;;;;5016929;28;20205;-77
2023/07/17 03:00:34;;;;;;;2.63;1.30;;;20.60;84.30;;;;;;5032654;28;20591;-78
2023/07/17 03:03:07;;;;;;;2.63;1.10;;;20.60;84.70;;;;;;5014664;28;20276;-77
2023/07/17 03:05:36;;;;;;;3.53;1.27;;;20.60;85.10;;;;;;5017758;28;20648;-78
2023/07/17 03:08:02;;;;;;;2.73;1.03;;;20.50;85.30;;;;;;5032129;28;21175;-78
2023/07/17 03:10:29;;;;;;;3.20;1.10;;;20.50;85.40;;;;;;5015566;28;20593;-78
2023/07/17 03:12:56;;;;;;;2.77;1.20;;;20.50;86.00;;;;;;5010334;28;20659;-79
2023/07/17 03:15:23;;;;;;;2.07;1.47;;;20.50;86.50;;;;;;5029583;28;20576;-79
2023/07/17 03:17:48;;;;;;;2.43;1.20;;;20.40;86.90;;;;;;5045607;28;20577;-79
2023/07/17 03:20:14;;;;;;;2.67;1.10;;;20.40;87.50;;;;;;5031502;28;20597;-79
2023/07/17 03:22:40;;;;;;;3.13;1.20;;;20.30;87.80;;;;;;4987438;28;20292;-79
2023/07/17 03:25:06;;;;;;;3.83;1.47;;;20.30;88.10;;;;;;5005126;28;20946;-79
2023/07/17 03:27:33;;;;;;;2.63;1.27;;;20.30;88.50;;;;;;5000731;28;20178;-79
2023/07/17 03:29:59;;;;;;;3.20;1.13;;;20.30;88.90;;;;;;4982432;28;20597;-79
2023/07/17 03:32:24;;;;;;;3.40;1.20;;;20.30;89.40;;;;;;4996743;28;20655;-79
2023/07/17 03:34:50;;;;;;;4.50;1.87;;;20.30;90.00;;;;;;5010599;28;20587;-79
2023/07/17 03:37:16;;;;;;;4.17;1.07;;;20.30;90.10;;;;;;5038349;28;20686;-79
2023/07/17 03:39:42;;;;;;;3.97;1.40;;;20.30;90.40;;;;;;5034979;28;20200;-79
2023/07/17 03:42:10;;;;;;;4.40;1.20;;;20.30;90.50;;;;;;5034273;28;20256;-79
2023/07/17 03:44:38;;;;;;;2.90;1.20;;;20.20;90.60;;;;;;5013635;28;20209;-79
2023/07/17 03:47:04;;;;;;;3.40;1.10;;;20.20;90.80;;;;;;4993080;28;20673;-79
2023/07/17 03:49:31;;;;;;;2.00;1.10;;;20.20;90.90;;;;;;5016506;28;20645;-78
2023/07/17 03:52:00;;;;;;;5.13;1.30;;;20.20;91.00;;;;;;5018033;28;20601;-78
2023/07/17 03:54:27;;;;;;;2.20;0.97;;;20.20;91.10;;;;;;4985860;28;20202;-78
2023/07/17 03:56:54;;;;;;;2.57;1.17;;;20.20;91.20;;;;;;4960581;28;20628;-79
2023/07/17 03:59:24;;;;;;;2.63;1.00;;;20.10;91.30;;;;;;4976257;28;20664;-78
2023/07/17 04:01:51;;;;;;;2.40;1.17;;;20.10;91.90;;;;;;4976705;28;20581;-78
2023/07/17 04:04:17;;;;;;;2.47;1.00;;;20.10;91.50;;;;;;5018191;28;20998;-78
2023/07/17 04:06:43;;;;;;;3.40;1.37;;;20.00;91.60;;;;;;5015927;28;20588;-78
2023/07/17 04:09:09;;;;;;;4.30;2.00;;;20.00;91.70;;;;;;5031986;28;20636;-78
2023/07/17 04:11:35;;;;;;;4.70;1.30;;;20.00;91.80;;;;;;5032227;28;20208;-77
2023/07/17 04:14:01;;;;;;;2.57;1.03;;;19.90;92.00;;;;;;5050257;28;20659;-78
2023/07/17 04:16:27;;;;;;;2.33;1.37;;;19.90;92.20;;;;;;5015903;28;20181;-78
2023/07/17 04:18:55;;;;;;;2.40;1.10;;;19.90;92.50;;;;;;5015205;28;20667;-78
2023/07/17 04:21:20;;;;;;;2.43;1.10;;;19.90;92.60;;;;;;5015479;28;21131;-78
2023/07/17 04:23:50;;;;;;;3.10;1.10;;;19.90;92.80;;;;;;5016205;28;20188;-78
2023/07/17 04:26:19;;;;;;;3.33;1.30;;;19.90;93.00;;;;;;5017617;28;20619;-78
2023/07/17 04:28:45;;;;;;;2.57;1.20;;;20.00;93.10;;;;;;5031793;28;20619;-78
2023/07/17 04:31:10;;;;;;;3.10;1.50;;;20.00;93.20;;;;;;5031482;28;20173;-78
2023/07/17 04:33:36;;;;;;;2.40;1.20;;;20.10;93.30;;;;;;5004977;28;20679;-78
2023/07/17 04:36:07;;;;;;;2.63;1.23;;;20.10;93.40;;;;;;5032028;28;21340;-78
2023/07/17 04:38:33;;;;;;;2.50;1.20;;;20.20;93.70;;;;;;5032155;28;20638;-78
2023/07/17 04:40:58;;;;;;;2.60;1.23;;;20.40;93.80;;;;;;5032724;28;20667;-78
2023/07/17 04:43:24;;;;;;;2.53;1.23;;;20.50;93.70;;;;;;5053679;28;20236;-78
2023/07/17 04:45:50;;;;;;;2.67;1.10;;;20.50;93.60;;;;;;5035997;28;20511;-78
2023/07/17 04:48:20;;;;;;;2.90;1.20;;;20.60;93.50;;;;;;4992871;28;20597;-78
2023/07/17 04:50:46;;;;;;;3.50;1.50;;;20.60;93.50;;;;;;5023480;28;20591;-78
2023/07/17 04:53:13;;;;;;;2.80;1.30;;;20.70;93.70;;;;;;5016082;28;20708;-78
2023/07/17 04:55:39;;;;;;;5.43;1.10;;;20.90;94.00;;;;;;4999709;28;20679;-79
2023/07/17 04:58:04;;;;;;;2.33;1.20;;;21.10;94.60;;;;;;4999448;28;20255;-79
2023/07/17 05:00:33;;;;;;;5.00;1.20;;;21.30;94.20;;;;;;4999192;28;20320;-79
2023/07/17 05:02:59;;;;;;;3.70;1.40;;;21.50;93.90;;;;;;4989490;28;20636;-78
2023/07/17 05:05:26;;;;;;;3.30;1.20;;;21.50;93.40;;;;;;4996300;28;21151;-79
2023/07/17 05:07:52;;;;;;;2.80;1.37;;;21.50;93.10;;;;;;4995833;28;20569;-78
2023/07/17 05:10:18;;;;;;;3.20;1.57;;;21.50;92.80;;;;;;4979644;28;20596;-79
2023/07/17 05:12:44;;;;;;;2.77;0.90;;;21.50;92.70;;;;;;4995512;28;20979;-79
2023/07/17 05:15:10;;;;;;;1.93;1.00;;;21.40;92.60;;;;;;4980178;28;20594;-79
2023/07/17 05:17:37;;;;;;;4.23;1.37;;;21.30;92.60;;;;;;5025403;28;20592;-78
2023/07/17 05:20:05;;;;;;;3.00;1.10;;;21.30;92.70;;;;;;5018718;28;20646;-79
2023/07/17 05:22:32;;;;;;;2.23;1.30;;;21.30;92.90;;;;;;5018100;28;20615;-78
2023/07/17 05:25:00;;;;;;;2.27;1.20;;;21.30;92.90;;;;;;5035480;28;20581;-78
2023/07/17 05:27:26;;;;;;;2.87;1.00;;;21.30;93.00;;;;;;5035313;28;20630;-78
2023/07/17 05:29:52;;;;;;;2.87;1.77;;;21.30;93.20;;;;;;5001879;28;20580;-78
2023/07/17 05:32:18;;;;;;;2.43;1.20;;;21.40;93.30;;;;;;5034826;28;20666;-78
2023/07/17 05:34:44;;;;;;;2.43;1.00;;;21.40;93.30;;;;;;5018539;28;20185;-78
2023/07/17 05:37:11;;;;;;;3.13;1.23;;;21.40;93.30;;;;;;5020451;28;20610;-78
2023/07/17 05:39:38;;;;;;;2.90;1.10;;;21.50;93.30;;;;;;5037871;28;20661;-79
2023/07/17 05:42:04;;;;;;;2.03;1.10;;;21.50;93.30;;;;;;5034922;28;20605;-78
2023/07/17 05:44:30;;;;;;;4.17;1.10;;;21.50;93.20;;;;;;5034232;28;20609;-78
2023/07/17 05:46:57;;;;;;;3.33;0.97;;;21.60;93.30;;;;;;5027971;28;20603;-78
2023/07/17 05:49:23;;;;;;;2.57;0.90;;;21.60;93.40;;;;;;5009077;28;20583;-78
2023/07/17 05:51:48;;;;;;;2.10;0.90;;;21.80;93.60;;;;;;5017652;28;20220;-78
2023/07/17 05:54:14;;;;;;;1.90;1.00;;;22.00;93.90;;;;;;5017776;28;20236;-78
2023/07/17 05:56:40;;;;;;;3.47;1.33;;;22.20;94.00;;;;;;5034812;28;20676;-78
2023/07/17 05:59:06;;;;;;;4.67;1.73;;;22.30;93.80;;;;;;5017600;28;20201;-78
2023/07/17 06:01:31;;;;;;;2.60;1.33;;;22.50;93.70;;;;;;5052053;28;20564;-78
2023/07/17 06:03:57;;;;;;;6.13;1.50;;;22.60;93.40;;;;;;5018069;28;20541;-78
2023/07/17 06:06:23;;;;;;;2.63;1.00;;;22.70;93.00;;;;;;5051886;28;20173;-78
2023/07/17 06:08:48;;;;;;;3.70;1.70;;;22.70;92.70;;;;;;5052240;28;20656;-78
2023/07/17 06:11:14;;;;;;;5.30;2.30;;;22.80;92.50;;;;;;5033966;28;20661;-78
2023/07/17 06:13:40;;;;;;;5.83;1.50;;;22.80;92.30;;;;;;5034714;28;20699;-78
2023/07/17 06:16:06;;;;;;;5.37;1.63;;;22.80;92.20;;;;;;5036533;28;20169;-77
2023/07/17 06:18:31;;;;;;;2.93;1.20;;;23.10;92.80;;;;;;5034207;28;20283;-78
2023/07/17 06:20:57;;;;;;;6.97;2.10;;;23.50;93.00;;;;;;5016705;28;20823;-78
2023/07/17 06:23:23;;;;;;;2.57;1.20;;;23.80;92.40;;;;;;5051707;28;20200;-78
2023/07/17 06:25:48;;;;;;;2.73;1.17;;;23.90;91.80;;;;;;5033911;28;20165;-78
2023/07/17 06:28:14;;;;;;;2.73;1.10;;;24.00;91.40;;;;;;5052251;28;20584;-77
2023/07/17 06:30:40;;;;;;;2.67;1.30;;;24.20;91.40;;;;;;5033058;28;20205;-78
2023/07/17 06:33:06;;;;;;;5.17;1.37;;;24.70;92.20;;;;;;4991299;28;20281;-78
2023/07/17 06:35:32;;;;;;;4.30;1.30;;;25.50;92.80;;;;;;4994038;28;20240;-78
2023/07/17 06:37:57;;;;;;;2.83;1.30;;;26.50;92.70;;;;;;5011828;28;20170;-78
2023/07/17 06:40:23;;;;;;;2.40;1.13;;;27.40;92.20;;;;;;4977798;28;20593;-78
2023/07/17 06:42:49;;;;;;;2.73;1.10;;;28.40;91.60;;;;;;4989989;28;20190;-78
2023/07/17 06:45:15;;;;;;;2.20;1.00;;;29.40;90.80;;;;;;5013167;28;20314;-78
2023/07/17 06:47:40;;;;;;;2.70;1.17;;;30.40;89.60;;;;;;4997213;28;20759;-78
2023/07/17 06:50:07;;;;;;;2.37;1.03;;;31.30;87.00;;;;;;5012029;28;20688;-78
2023/07/17 06:52:32;;;;;;;4.53;1.37;;;32.30;84.30;;;;;;4998143;28;20213;-78
2023/07/17 06:54:58;;;;;;;3.03;1.10;;;33.10;80.80;;;;;;5011412;28;20563;-75
2023/07/17 06:57:24;;;;;;;2.27;1.30;;;33.90;77.40;;;;;;5022957;28;20189;-79
2023/07/17 06:59:50;;;;;;;2.13;1.10;;;34.60;74.00;;;;;;5012571;28;20557;-80
2023/07/17 07:02:15;;;;;;;2.63;1.40;;;35.30;70.10;;;;;;4996696;28;20178;-79
2023/07/17 07:04:41;;;;;;;2.47;1.57;;;35.90;65.90;;;;;;5012632;28;20349;-78
2023/07/17 07:07:07;;;;;;;2.20;1.10;;;36.30;60.70;;;;;;5013422;28;20166;-76
2023/07/17 07:09:32;;;;;;;2.73;1.10;;;36.60;59.10;;;;;;5012922;28;20801;-75
2023/07/17 07:11:58;;;;;;;3.23;1.40;;;37.00;57.80;;;;;;4994021;28;20686;-76
2023/07/17 07:14:24;;;;;;;2.80;1.67;;;37.40;55.90;;;;;;4977117;28;20210;-76
2023/07/17 07:16:49;;;;;;;4.20;1.47;;;37.70;54.70;;;;;;4993226;28;20188;-76
2023/07/17 07:19:15;;;;;;;3.03;1.53;;;37.70;52.20;;;;;;4992596;28;20206;-77
2023/07/17 07:21:42;;;;;;;3.07;1.90;;;37.80;51.20;;;;;;4992324;28;20581;-76
2023/07/17 07:24:07;;;;;;;3.60;1.47;;;38.00;50.20;;;;;;4977199;28;20687;-76
2023/07/17 07:26:33;;;;;;;3.07;1.37;;;38.20;49.60;;;;;;4993187;28;20200;-76
2023/07/17 07:28:59;;;;;;;2.63;1.40;;;38.40;48.50;;;;;;4993411;28;20189;-76
2023/07/17 07:31:24;;;;;;;3.63;1.70;;;38.70;47.50;;;;;;4992691;28;20170;-76
2023/07/17 07:33:50;;;;;;;5.40;2.20;;;38.90;46.50;;;;;;4976929;28;20297;-77
2023/07/17 07:36:16;;;;;;;3.90;2.30;;;39.10;45.60;;;;;;5011113;28;20181;-76
2023/07/17 07:38:42;;;;;;;2.63;1.57;;;39.30;44.70;;;;;;5010535;28;20215;-76
2023/07/17 07:41:07;;;;;;;3.53;1.80;;;39.50;44.10;;;;;;4992713;28;20181;-76
2023/07/17 07:43:33;;;;;;;3.30;1.53;;;39.70;43.50;;;;;;4992844;28;20289;-76
2023/07/17 07:45:59;;;;;;;3.00;1.67;;;39.90;42.80;;;;;;4993307;28;20179;-75
2023/07/17 07:48:24;;;;;;;2.60;1.30;;;40.10;42.30;;;;;;4992259;28;20177;-76
2023/07/17 07:50:50;;;;;;;2.50;1.80;;;40.30;41.30;;;;;;4992507;28;20201;-76
2023/07/17 07:53:16;;;;;;;2.47;1.70;;;40.50;40.80;;;;;;4992726;28;20317;-76
2023/07/17 07:55:42;;;;;;;3.40;1.87;;;40.60;40.10;;;;;;4992298;28;20577;-75
2023/07/17 07:58:08;;;;;;;3.07;2.20;;;40.60;39.50;;;;;;5010682;28;20714;-75
2023/07/17 08:00:33;;;;;;;3.53;1.63;;;40.80;38.90;;;;;;4975152;28;20201;-75
2023/07/17 08:02:59;;;;;;;2.70;1.40;;;40.90;38.40;;;;;;4992278;28;20860;-76
2023/07/17 08:05:25;;;;;;;2.23;1.50;;;40.90;37.60;;;;;;4977181;28;20174;-75
2023/07/17 08:07:51;;;;;;;3.73;1.60;;;40.90;37.50;;;;;;5010659;28;21236;-75
2023/07/17 08:10:16;;;;;;;3.87;1.77;;;40.90;37.10;;;;;;5009497;28;20167;-75
2023/07/17 08:12:42;;;;;;;2.57;1.50;;;40.90;36.70;;;;;;5017165;28;20291;-75
2023/07/17 08:15:08;;;;;;;2.77;1.90;;;40.80;36.20;;;;;;5029359;28;20181;-75
2023/07/17 08:17:34;;;;;;;2.00;1.27;;;40.80;35.90;;;;;;5012014;28;20243;-76
2023/07/17 08:20:00;;;;;;;3.63;2.33;;;40.80;35.90;;;;;;5029254;28;20717;-76
2023/07/17 08:22:26;;;;;;;6.57;2.03;;;40.70;35.30;;;;;;5011731;28;20580;-76
2023/07/17 08:24:52;;;;;;;2.57;1.43;;;40.70;35.50;;;;;;5012410;28;20579;-76
2023/07/17 08:27:18;;;;;;;4.00;1.80;;;40.70;35.30;;;;;;5029767;28;20170;-76
2023/07/17 08:29:43;;;;;;;2.90;1.60;;;40.60;34.50;;;;;;5029113;28;20186;-76
2023/07/17 08:32:12;;;;;;;5.07;1.73;;;40.30;34.10;;;;;;4981603;28;20189;-76
2023/07/17 08:34:38;;;;;;;3.63;1.37;;;40.00;34.30;;;;;;4976458;28;20182;-75
2023/07/17 08:37:04;;;;;;;7.33;2.17;;;40.10;34.60;;;;;;4992733;28;21072;-76
2023/07/17 08:39:29;;;;;;;3.07;2.27;;;40.10;34.40;;;;;;5010097;28;20607;-77
2023/07/17 08:41:55;;;;;;;3.10;2.20;;;40.10;33.80;;;;;;4996198;28;20178;-75
2023/07/17 08:44:21;;;;;;;2.80;1.70;;;40.00;33.70;;;;;;5019631;28;20194;-76
2023/07/17 08:46:50;;;;;;;3.30;2.00;;;40.10;33.40;;;;;;4992310;28;20174;-76
2023/07/17 08:49:18;;;;;;;2.67;1.80;;;39.90;33.00;;;;;;4975552;28;20591;-77
2023/07/17 08:51:46;;;;;;;4.50;2.10;;;39.90;33.10;;;;;;4992127;28;20631;-76
2023/07/17 08:54:14;;;;;;;5.60;2.70;;;40.00;33.00;;;;;;4992357;28;20683;-76
2023/07/17 08:56:42;;;;;;;2.87;2.13;;;40.10;32.90;;;;;;4976277;28;20597;-76
2023/07/17 08:59:09;;;;;;;4.37;2.17;;;40.20;32.60;;;;;;5009895;28;20972;-76
2023/07/17 09:01:36;;;;;;;3.77;2.50;;;40.50;32.80;;;;;;4991486;28;20600;-75
2023/07/17 09:04:03;;;;;;;3.07;2.60;;;40.70;32.50;;;;;;5010067;28;20616;-75
2023/07/17 09:06:29;;;;;;;4.00;2.50;;;40.90;31.90;;;;;;5012788;28;20584;-75
2023/07/17 09:08:55;;;;;;;3.70;2.20;;;41.10;31.70;;;;;;4992359;28;20633;-74
2023/07/17 09:11:20;;;;;;;3.77;1.97;;;41.30;31.60;;;;;;4991480;28;20589;-73
2023/07/17 09:13:49;;;;;;;3.63;2.40;;;41.50;31.40;;;;;;4992247;28;20210;-76
2023/07/17 09:16:17;;;;;;;3.03;1.97;;;41.50;31.10;;;;;;5009557;28;20202;-76
2023/07/17 09:18:43;;;;;;;4.60;2.33;;;41.60;30.70;;;;;;4959833;28;20690;-75
2023/07/17 09:21:12;;;;;;;3.20;1.97;;;41.40;30.00;;;;;;5017989;23;20705;-79
2023/07/17 09:23:50;;;;;;;2.80;2.20;;;41.30;30.00;;;;;;5045747;28;20580;-79
2023/07/17 09:26:21;;;;;;;3.87;2.70;;;41.30;30.00;;;;;;5021495;28;20583;-78
2023/07/17 09:28:50;;;;;;;3.70;2.43;;;41.30;30.10;;;;;;5037690;28;20650;-79
2023/07/17 09:31:27;;;;;;;5.93;2.53;;;41.40;30.50;;;;;;5054566;28;20688;-78
2023/07/17 09:33:55;;;;;;;2.97;1.80;;;41.30;29.90;;;;;;5005101;28;20582;-79
2023/07/17 09:36:22;;;;;;;4.40;2.63;;;41.10;30.00;;;;;;5037372;28;20606;-78
2023/07/17 09:38:56;;;;;;;4.90;2.00;;;41.00;29.70;;;;;;5044228;28;20584;-78
2023/07/17 09:41:27;;;;;;;2.73;1.90;;;40.70;29.10;;;;;;5025420;28;20603;-76
2023/07/17 09:44:02;;;;;;;4.90;1.87;;;40.10;29.10;;;;;;5031629;28;20595;-78
2023/07/17 09:46:29;;;;;;;3.00;1.80;;;39.60;29.50;;;;;;5053319;28;20730;-79
2023/07/17 09:48:56;;;;;;;5.90;2.17;;;39.20;29.70;;;;;;5015401;28;20667;-77
2023/07/17 09:51:22;;;;;;;3.40;2.07;;;39.00;29.90;;;;;;5028258;28;20597;-78
2023/07/17 09:53:48;;;;;;;3.00;1.53;;;39.10;30.30;;;;;;5031273;28;20595;-76
2023/07/17 09:56:16;;;;;;;3.20;1.93;;;39.20;30.70;;;;;;5017830;28;21190;-77
2023/07/17 09:58:46;;;;;;;3.40;1.97;;;39.30;30.30;;;;;;5039545;28;20593;-76
2023/07/17 10:01:16;;;;;;;3.20;2.50;;;39.30;30.50;;;;;;5009661;28;21219;-77
2023/07/17 10:03:46;;;;;;;3.93;2.20;;;39.50;30.60;;;;;;5028139;28;20593;-78
2023/07/17 10:06:30;;;;;;;7.03;3.33;;;39.40;29.90;;;;;;5025978;28;20580;-78
2023/07/17 10:08:58;;;;;;;4.20;2.77;;;38.90;29.50;;;;;;5022056;28;20738;-78
2023/07/17 10:11:24;;;;;;;7.40;2.63;;;38.20;29.40;;;;;;5049158;28;21092;-79
2023/07/17 10:13:51;;;;;;;4.50;2.60;;;37.60;29.70;;;;;;5024869;28;20595;-79
2023/07/17 10:16:18;;;;;;;4.63;2.40;;;37.40;30.20;;;;;;5035686;28;20670;-79
2023/07/17 10:18:54;;;;;;;5.63;2.40;;;37.40;30.70;;;;;;5020660;28;20599;-78
2023/07/17 10:21:21;;;;;;;3.20;2.07;;;37.60;30.80;;;;;;5053238;28;20627;-79
2023/07/17 10:23:49;;;;;;;4.00;2.10;;;37.80;31.20;;;;;;5034953;28;20596;-78
2023/07/17 10:26:18;;;;;;;3.40;2.20;;;38.10;31.10;;;;;;5048218;28;20580;-78
2023/07/17 10:28:49;;;;;;;4.50;2.10;;;38.20;30.40;;;;;;5027954;28;20627;-78
2023/07/17 10:31:18;;;;;;;3.23;1.70;;;38.30;30.30;;;;;;5041156;28;20698;-77
2023/07/17 10:33:49;;;;;;;4.70;2.20;;;38.20;30.00;;;;;;5038898;28;20588;-77
2023/07/17 10:36:16;;;;;;;4.40;2.17;;;38.10;29.90;;;;;;5046325;28;20589;-77
2023/07/17 10:38:48;;;;;;;3.37;1.93;;;37.90;30.00;;;;;;5048857;28;20581;-77
2023/07/17 10:41:14;;;;;;;4.60;2.20;;;37.80;30.00;;;;;;5005826;28;21020;-78
2023/07/17 10:43:51;;;;;;;2.90;2.30;;;37.70;30.50;;;;;;5026226;28;20646;-77
2023/07/17 10:46:17;;;;;;;3.00;2.10;;;37.60;30.30;;;;;;5031707;28;20272;-76
2023/07/17 10:48:43;;;;;;;2.90;1.60;;;37.40;30.30;;;;;;5036433;28;20632;-77
2023/07/17 10:51:09;;;;;;;5.97;2.13;;;37.20;30.30;;;;;;5053922;28;20208;-77
2023/07/17 10:53:35;;;;;;;4.20;1.90;;;37.10;30.60;;;;;;5020821;28;20569;-77
2023/07/17 10:56:01;;;;;;;4.20;2.03;;;37.20;31.20;;;;;;5053311;28;20165;-77
2023/07/17 10:58:27;;;;;;;4.60;2.47;;;37.30;31.30;;;;;;5036978;28;20200;-77
2023/07/17 11:00:53;;;;;;;3.43;1.93;;;37.20;31.00;;;;;;5053159;28;20636;-78
2023/07/17 11:03:22;;;;;;;3.07;2.30;;;37.10;30.90;;;;;;5036227;28;20181;-78
2023/07/17 11:05:49;;;;;;;3.77;1.83;;;36.80;30.50;;;;;;5013660;28;20626;-77
2023/07/17 11:08:15;;;;;;;3.57;1.83;;;36.40;30.10;;;;;;5013081;28;20592;-78
2023/07/17 11:10:43;;;;;;;3.87;2.60;;;36.00;30.30;;;;;;5030877;28;20599;-77
2023/07/17 11:13:10;;;;;;;4.27;2.50;;;35.70;30.30;;;;;;5054641;28;20634;-77
2023/07/17 11:15:37;;;;;;;3.70;2.07;;;35.30;30.40;;;;;;5040107;28;20626;-78
2023/07/17 11:18:05;;;;;;;4.27;3.20;;;35.00;30.90;;;;;;5028275;28;20649;-79
2023/07/17 11:20:32;;;;;;;4.13;1.87;;;34.70;30.90;;;;;;5020201;28;20699;-78
2023/07/17 11:22:58;;;;;;;2.70;1.50;;;34.30;31.00;;;;;;5047424;28;20586;-79
2023/07/17 11:25:26;;;;;;;3.40;1.67;;;34.00;31.20;;;;;;5034704;28;20638;-78
2023/07/17 11:27:53;;;;;;;3.10;1.80;;;33.80;31.40;;;;;;5022520;28;20645;-79
2023/07/17 11:30:27;;;;;;;3.03;2.07;;;33.60;31.90;;;;;;5057224;28;20651;-79
2023/07/17 11:33:07;;;;;;;5.50;1.70;;;33.70;32.20;;;;;;5039189;28;20569;-79
2023/07/17 11:35:40;;;;;;;4.23;2.13;;;33.70;32.20;;;;;;5045282;28;20693;-79
2023/07/17 11:38:07;;;;;;;3.80;2.70;;;33.70;31.90;;;;;;5042143;28;20653;-80
2023/07/17 11:40:33;;;;;;;4.43;1.73;;;33.80;32.30;;;;;;5043461;28;20571;-77
2023/07/17 11:43:04;;;;;;;7.17;2.60;;;34.00;32.60;;;;;;5031437;28;20575;-79
2023/07/17 11:45:31;;;;;;;3.20;2.30;;;34.20;32.80;;;;;;5046127;28;20545;-80
2023/07/17 11:47:57;;;;;;;4.13;2.43;;;34.40;32.80;;;;;;5019302;28;20610;-81
2023/07/17 11:50:27;;;;;;;3.47;1.80;;;34.50;32.30;;;;;;5034287;28;20592;-78
2023/07/17 11:53:19;;;;;;;3.90;2.10;;;34.60;32.10;;;;;;5030472;28;20572;-79
2023/07/17 11:55:45;;;;;;;3.60;2.40;;;34.50;32.20;;;;;;5028463;28;20622;-79
2023/07/17 11:58:14;;;;;;;3.70;2.03;;;34.50;32.40;;;;;;5048982;28;20588;-79
2023/07/17 12:00:44;;;;;;;3.40;2.03;;;34.40;32.60;;;;;;5044579;28;20220;-78
2023/07/17 12:03:10;;;;;;;3.50;2.23;;;34.40;32.50;;;;;;5036978;28;20579;-78
2023/07/17 12:05:36;;;;;;;4.33;2.33;;;34.30;32.30;;;;;;5045594;28;20571;-77
2023/07/17 12:08:03;;;;;;;5.20;2.70;;;34.10;32.30;;;;;;5034161;28;20186;-77
2023/07/17 12:10:29;;;;;;;3.87;2.17;;;33.90;32.60;;;;;;5002104;28;20670;-78
2023/07/17 12:12:55;;;;;;;3.00;2.00;;;33.90;32.90;;;;;;5047811;28;20588;-77
2023/07/17 12:15:22;;;;;;;3.20;1.80;;;33.90;33.20;;;;;;5047411;28;20628;-76
2023/07/17 12:17:48;;;;;;;3.10;2.10;;;33.90;33.30;;;;;;5025047;28;20586;-78
2023/07/17 12:20:20;;;;;;;5.07;2.10;;;34.00;33.60;;;;;;5044952;28;20568;-78
2023/07/17 12:22:49;;;;;;;5.33;2.80;;;34.00;33.60;;;;;;5043888;28;20579;-79
2023/07/17 12:25:15;;;;;;;4.00;2.10;;;34.00;33.20;;;;;;5052900;28;20616;-78
2023/07/17 12:27:44;;;;;;;3.93;2.23;;;33.80;32.70;;;;;;5043649;28;20617;-77
2023/07/17 12:30:12;;;;;;;4.17;2.83;;;33.60;32.50;;;;;;5027796;28;20639;-78
2023/07/17 12:32:38;;;;;;;5.87;3.03;;;33.40;32.90;;;;;;5020654;28;20616;-77
2023/07/17 12:35:06;;;;;;;3.97;2.90;;;33.30;33.30;;;;;;5051627;28;20585;-79
2023/07/17 12:37:32;;;;;;;4.43;2.60;;;33.20;33.40;;;;;;5046467;28;20594;-78
2023/07/17 12:39:58;;;;;;;2.90;1.90;;;33.10;33.10;;;;;;5050705;28;20568;-78
2023/07/17 12:42:27;;;;;;;4.67;2.40;;;32.90;33.10;;;;;;5054810;28;20657;-79
2023/07/17 12:44:58;;;;;;;4.33;2.60;;;32.80;33.30;;;;;;5053584;28;20583;-78
2023/07/17 12:47:25;;;;;;;3.70;2.43;;;32.70;33.20;;;;;;5050442;28;20625;-78